Time;durP1;ratioP1;P1;durP2;ratioP2;P2;SDS_P1;SDS_P2;PMS_P1;PMS_P2;Temp;Humidity;BMP_temperature;BMP_pressure;BME280_temperature;BME280_humidity;BME280_pressure;Samples;Min_cycle;Max_cycle;Signal;HPM_P1;HPM_P2
2022/03/23 00:00:37;;;;;;;6.13;3.45;;;30.70;97.90;;;;;;5050781;28;20075;-74
2022/03/23 00:03:04;;;;;;;13.38;3.95;;;31.30;97.60;;;;;;5055906;28;20032;-75
2022/03/23 00:05:32;;;;;;;10.10;4.10;;;31.70;96.80;;;;;;5056231;28;20024;-75
2022/03/23 00:08:00;;;;;;;5.78;4.05;;;31.60;97.00;;;;;;5049950;28;20475;-74
2022/03/23 00:10:29;;;;;;;6.00;3.08;;;31.60;97.00;;;;;;5055399;28;20071;-73
2022/03/23 00:12:58;;;;;;;9.93;3.75;;;31.70;97.00;;;;;;5050553;28;20028;-73
2022/03/23 00:15:27;;;;;;;10.20;3.92;;;31.90;96.00;;;;;;5052950;28;20036;-75
2022/03/23 00:17:55;;;;;;;13.95;3.70;;;32.00;95.70;;;;;;5057614;28;20052;-75
2022/03/23 00:20:23;;;;;;;6.75;3.45;;;32.20;96.00;;;;;;5054414;28;20874;-75
2022/03/23 00:22:51;;;;;;;5.38;2.85;;;32.50;95.50;;;;;;5061859;28;20909;-75
2022/03/23 00:25:18;;;;;;;7.75;3.67;;;32.50;96.20;;;;;;5051647;28;20403;-75
2022/03/23 00:27:45;;;;;;;4.85;2.58;;;32.50;95.70;;;;;;5052288;28;20447;-74
2022/03/23 00:30:13;;;;;;;10.73;3.28;;;32.80;95.10;;;;;;5054862;28;20025;-75
2022/03/23 00:32:41;;;;;;;5.55;3.00;;;32.20;95.10;;;;;;5051374;28;20044;-74
2022/03/23 00:35:08;;;;;;;7.78;2.72;;;31.60;95.50;;;;;;5055249;28;20056;-74
2022/03/23 00:37:37;;;;;;;5.05;2.40;;;31.10;96.20;;;;;;5050911;28;20021;-73
2022/03/23 00:40:04;;;;;;;5.72;2.67;;;30.90;95.80;;;;;;5051432;28;20078;-74
2022/03/23 00:42:32;;;;;;;4.00;2.55;;;30.70;96.30;;;;;;5056711;28;20025;-75
2022/03/23 00:44:59;;;;;;;3.80;2.53;;;30.60;96.30;;;;;;5060931;28;20558;-74
2022/03/23 00:47:27;;;;;;;6.38;3.00;;;30.40;96.20;;;;;;5055347;28;20021;-75
2022/03/23 00:49:54;;;;;;;6.78;2.40;;;30.30;96.40;;;;;;5057114;28;20044;-76
2022/03/23 00:52:21;;;;;;;7.43;2.60;;;30.30;96.90;;;;;;5058060;28;20029;-74
2022/03/23 00:54:49;;;;;;;7.10;2.05;;;30.30;96.60;;;;;;5073114;28;20039;-73
2022/03/23 00:57:16;;;;;;;6.28;2.33;;;30.50;96.30;;;;;;5066516;28;20052;-74
2022/03/23 00:59:43;;;;;;;5.05;2.03;;;31.10;95.90;;;;;;5062736;28;20094;-75
2022/03/23 01:02:11;;;;;;;5.20;1.77;;;31.50;95.20;;;;;;5058491;28;20111;-76
2022/03/23 01:04:38;;;;;;;5.10;2.35;;;31.50;95.40;;;;;;5062996;28;20036;-74
2022/03/23 01:07:05;;;;;;;5.75;2.00;;;31.10;95.70;;;;;;5059882;28;20048;-74
2022/03/23 01:09:33;;;;;;;6.35;1.98;;;30.70;96.40;;;;;;5055356;28;20044;-73
2022/03/23 01:12:00;;;;;;;8.88;3.25;;;30.10;97.00;;;;;;5064751;28;20025;-76
2022/03/23 01:14:28;;;;;;;5.90;2.28;;;29.40;97.60;;;;;;5067026;28;20039;-73
2022/03/23 01:16:56;;;;;;;9.50;2.58;;;29.00;98.20;;;;;;5061341;28;20063;-74
2022/03/23 01:19:27;;;;;;;7.50;2.83;;;28.60;98.70;;;;;;5053024;28;20025;-72
2022/03/23 01:21:55;;;;;;;7.00;2.63;;;28.40;99.00;;;;;;5050621;28;20056;-74
2022/03/23 01:24:23;;;;;;;11.50;2.53;;;28.30;99.10;;;;;;5050176;28;20024;-74
2022/03/23 01:26:50;;;;;;;4.88;1.88;;;28.20;99.10;;;;;;5049742;28;20078;-72
2022/03/23 01:29:18;;;;;;;6.07;3.45;;;28.10;99.10;;;;;;5050596;28;20042;-72
2022/03/23 01:31:46;;;;;;;4.68;2.13;;;28.10;99.00;;;;;;5049190;28;20024;-75
2022/03/23 01:34:14;;;;;;;6.15;2.10;;;28.20;99.00;;;;;;5047976;28;20069;-73
2022/03/23 01:36:42;;;;;;;6.10;2.03;;;28.40;98.70;;;;;;5054699;28;20028;-74
2022/03/23 01:39:09;;;;;;;5.80;1.92;;;28.70;98.80;;;;;;5049926;28;20029;-73
2022/03/23 01:41:38;;;;;;;6.03;2.45;;;29.00;98.40;;;;;;5051678;28;20033;-74
2022/03/23 01:44:25;;;;;;;3.03;1.50;;;29.10;97.90;;;;;;5048779;28;20179;-74
2022/03/23 01:47:07;;;;;;;8.93;2.75;;;29.10;97.30;;;;;;5051090;28;20021;-73
2022/03/23 01:49:40;;;;;;;5.35;1.95;;;29.10;97.50;;;;;;5052410;28;20032;-74
2022/03/23 01:52:10;;;;;;;4.60;1.25;;;29.00;97.60;;;;;;5065823;28;20044;-74
2022/03/23 01:54:39;;;;;;;7.20;1.98;;;28.80;97.60;;;;;;5049546;28;21910;-74
2022/03/23 01:57:09;;;;;;;8.52;2.00;;;28.60;98.00;;;;;;5061104;28;20055;-74
2022/03/23 01:59:37;;;;;;;7.68;2.25;;;28.60;97.90;;;;;;5054160;28;20025;-74
2022/03/23 02:02:08;;;;;;;2.92;1.42;;;28.80;97.70;;;;;;5057067;28;20038;-76
2022/03/23 02:04:36;;;;;;;7.55;2.67;;;29.00;97.60;;;;;;5054901;28;20035;-76
2022/03/23 02:07:04;;;;;;;8.85;1.98;;;28.90;97.80;;;;;;5057303;28;20053;-75
2022/03/23 02:09:32;;;;;;;2.20;1.52;;;28.70;97.50;;;;;;5054967;28;20040;-74
2022/03/23 02:12:02;;;;;;;7.85;1.75;;;28.50;97.70;;;;;;5056980;28;20029;-75
2022/03/23 02:14:29;;;;;;;6.75;2.70;;;28.40;97.80;;;;;;5057925;28;20028;-74
2022/03/23 02:16:57;;;;;;;9.60;2.05;;;28.10;98.10;;;;;;5066306;28;20035;-74
2022/03/23 02:19:24;;;;;;;6.15;1.83;;;27.80;98.60;;;;;;5056765;28;20031;-75
2022/03/23 02:21:55;;;;;;;4.55;1.92;;;27.50;98.80;;;;;;5056694;28;20075;-74
2022/03/23 02:24:28;;;;;;;4.63;2.30;;;27.30;98.90;;;;;;5055277;28;20567;-75
2022/03/23 02:26:57;;;;;;;6.32;2.20;;;27.00;99.10;;;;;;5055901;28;20033;-75
2022/03/23 02:29:31;;;;;;;6.97;2.70;;;26.90;99.30;;;;;;5058465;28;20109;-75
2022/03/23 02:32:01;;;;;;;7.10;2.33;;;26.90;99.50;;;;;;5055407;28;20095;-77
2022/03/23 02:34:29;;;;;;;4.18;1.77;;;26.90;99.10;;;;;;5064768;28;20058;-76
2022/03/23 02:36:57;;;;;;;4.65;1.58;;;26.90;99.10;;;;;;5060067;28;20053;-76
2022/03/23 02:39:28;;;;;;;4.05;2.22;;;26.90;99.20;;;;;;5056027;28;20021;-75
2022/03/23 02:41:56;;;;;;;7.43;2.30;;;26.90;99.10;;;;;;5058298;28;20044;-73
2022/03/23 02:44:29;;;;;;;3.47;1.52;;;27.00;99.20;;;;;;5059259;28;20040;-73
2022/03/23 02:47:01;;;;;;;5.40;1.58;;;27.10;99.00;;;;;;5071178;28;20024;-74
2022/03/23 02:49:28;;;;;;;3.17;1.63;;;27.50;98.70;;;;;;5067112;28;20094;-77
2022/03/23 02:51:55;;;;;;;4.43;1.95;;;27.60;98.30;;;;;;5062174;28;20027;-75
2022/03/23 03:03:06;;;;;;;6.72;1.88;;;29.90;96.00;;;;;;5070769;28;20044;-77
2022/03/23 03:05:33;;;;;;;6.18;2.00;;;30.40;95.10;;;;;;5071962;28;20031;-75
2022/03/23 03:10:46;;;;;;;3.83;1.67;;;30.30;96.00;;;;;;5055520;28;20052;-75
2022/03/23 03:13:34;;;;;;;4.47;1.52;;;30.30;95.20;;;;;;5050696;28;20040;-77
2022/03/23 03:16:03;;;;;;;6.88;2.20;;;30.30;95.00;;;;;;5070253;28;20032;-75
2022/03/23 03:18:35;;;;;;;3.33;1.25;;;29.90;95.10;;;;;;5070887;28;20374;-77
2022/03/23 03:21:10;;;;;;;3.85;1.40;;;29.50;95.30;;;;;;5063897;28;20024;-76
2022/03/23 03:23:42;;;;;;;3.63;1.70;;;29.00;95.60;;;;;;5057829;28;20155;-72
2022/03/23 03:26:11;;;;;;;6.18;1.30;;;28.70;95.90;;;;;;5078299;28;20035;-73
2022/03/23 03:28:40;;;;;;;4.20;1.10;;;28.30;96.30;;;;;;5067673;28;20032;-75
2022/03/23 03:31:10;;;;;;;6.47;1.02;;;28.10;96.50;;;;;;5070885;28;20571;-74
2022/03/23 03:33:38;;;;;;;3.42;1.10;;;27.80;96.70;;;;;;5069013;28;20467;-76
2022/03/23 03:36:07;;;;;;;3.20;1.40;;;27.60;97.20;;;;;;5069507;28;20036;-76
2022/03/23 03:38:36;;;;;;;5.63;1.65;;;27.40;97.20;;;;;;5067968;28;20032;-75
2022/03/23 03:41:04;;;;;;;12.18;1.63;;;27.30;97.30;;;;;;5068819;28;20499;-74
2022/03/23 03:43:32;;;;;;;4.93;1.05;;;27.20;97.20;;;;;;5067630;28;20049;-74
2022/03/23 03:46:01;;;;;;;5.93;1.55;;;27.20;97.20;;;;;;5069556;28;20064;-76
2022/03/23 03:48:29;;;;;;;6.47;1.02;;;26.90;97.30;;;;;;5067922;28;20492;-74
2022/03/23 03:50:56;;;;;;;2.90;0.80;;;26.70;97.30;;;;;;5064844;28;20037;-75
2022/03/23 03:53:24;;;;;;;2.50;0.70;;;26.50;97.30;;;;;;5062719;28;20147;-76
2022/03/23 03:55:51;;;;;;;2.10;0.80;;;26.40;97.10;;;;;;5061993;28;21198;-76
2022/03/23 03:58:18;;;;;;;8.52;1.20;;;26.30;97.40;;;;;;5070074;28;20127;-75
2022/03/23 04:00:46;;;;;;;7.22;0.90;;;26.20;97.40;;;;;;5069845;28;20043;-75
2022/03/23 04:03:14;;;;;;;4.35;0.98;;;26.20;97.30;;;;;;5067484;28;20021;-78
2022/03/23 04:05:41;;;;;;;6.20;2.40;;;26.20;97.40;;;;;;5071636;28;20382;-75
2022/03/23 04:08:09;;;;;;;5.13;1.20;;;26.00;97.50;;;;;;5065964;28;20112;-75
2022/03/23 04:10:37;;;;;;;3.28;0.82;;;25.90;97.80;;;;;;5060884;28;20082;-78
2022/03/23 04:13:07;;;;;;;3.33;1.00;;;25.90;97.90;;;;;;5065950;28;20021;-74
2022/03/23 04:15:36;;;;;;;7.68;1.25;;;25.80;97.60;;;;;;5064298;28;20106;-76
2022/03/23 04:18:03;;;;;;;8.35;1.70;;;25.70;97.80;;;;;;5066321;28;20052;-76
2022/03/23 04:20:31;;;;;;;4.05;1.25;;;25.70;97.90;;;;;;5064662;28;20059;-74
2022/03/23 04:22:58;;;;;;;3.42;1.13;;;25.80;97.90;;;;;;5068598;28;20028;-74
2022/03/23 04:25:26;;;;;;;5.57;1.05;;;25.80;97.70;;;;;;5061620;28;20048;-72
2022/03/23 04:27:58;;;;;;;5.25;0.93;;;25.80;97.80;;;;;;5061650;28;20541;-75
2022/03/23 04:30:30;;;;;;;4.45;0.75;;;25.70;97.70;;;;;;5068789;28;20063;-78
2022/03/23 04:32:58;;;;;;;4.63;0.98;;;25.50;98.00;;;;;;5069841;28;20107;-76
2022/03/23 04:35:26;;;;;;;11.02;1.30;;;25.50;98.10;;;;;;5067462;28;20458;-72
2022/03/23 04:37:53;;;;;;;7.93;1.23;;;25.60;98.30;;;;;;5066851;28;20027;-76
2022/03/23 04:40:22;;;;;;;5.40;1.50;;;25.50;98.20;;;;;;5065258;28;20046;-75
2022/03/23 04:42:49;;;;;;;2.40;0.52;;;25.50;98.20;;;;;;5068939;28;20441;-79
2022/03/23 04:45:20;;;;;;;4.80;1.00;;;25.50;98.30;;;;;;5068001;28;20032;-76
2022/03/23 04:47:47;;;;;;;6.95;1.38;;;25.50;98.30;;;;;;5067848;28;20029;-72
2022/03/23 04:50:16;;;;;;;5.20;0.60;;;25.40;98.50;;;;;;5057895;28;20038;-75
2022/03/23 04:52:45;;;;;;;3.83;1.13;;;25.30;98.50;;;;;;5050563;28;20090;-75
2022/03/23 04:55:14;;;;;;;5.15;0.93;;;25.30;98.70;;;;;;5050299;28;20062;-76
2022/03/23 04:57:42;;;;;;;3.50;0.88;;;25.30;98.70;;;;;;5054461;28;20108;-74
2022/03/23 05:00:14;;;;;;;6.80;1.58;;;25.20;98.70;;;;;;5064166;28;20360;-73
2022/03/23 05:02:43;;;;;;;6.32;0.82;;;25.20;98.90;;;;;;5060796;28;20526;-74
2022/03/23 05:05:11;;;;;;;3.85;0.82;;;25.20;99.20;;;;;;5061659;28;20032;-74
2022/03/23 05:07:40;;;;;;;5.55;1.38;;;25.20;98.90;;;;;;5062319;28;20032;-72
2022/03/23 05:10:09;;;;;;;1.83;0.70;;;25.20;98.80;;;;;;5056733;28;20032;-73
2022/03/23 05:12:41;;;;;;;3.30;1.05;;;25.20;98.80;;;;;;5050996;28;20530;-71
2022/03/23 05:15:10;;;;;;;4.93;1.63;;;25.30;98.80;;;;;;5063163;28;20028;-73
2022/03/23 05:17:38;;;;;;;7.72;1.52;;;25.30;98.90;;;;;;5046654;28;20443;-71
2022/03/23 05:20:07;;;;;;;2.00;0.70;;;25.50;99.10;;;;;;5061925;28;20074;-72
2022/03/23 05:22:35;;;;;;;4.00;1.35;;;25.70;98.50;;;;;;5063794;28;20020;-73
2022/03/23 05:25:04;;;;;;;4.95;0.85;;;25.80;98.30;;;;;;5065380;28;20040;-77
2022/03/23 05:27:35;;;;;;;5.47;1.17;;;25.70;98.40;;;;;;5050852;28;20104;-72
2022/03/23 05:30:07;;;;;;;7.03;0.55;;;25.60;98.40;;;;;;5066598;28;20033;-72
2022/03/23 05:32:35;;;;;;;2.72;1.42;;;25.40;98.60;;;;;;5062760;28;20109;-73
2022/03/23 05:35:03;;;;;;;6.30;0.63;;;25.30;98.60;;;;;;5067070;28;20028;-72
2022/03/23 05:37:30;;;;;;;2.75;1.23;;;25.20;98.70;;;;;;5060515;28;20378;-71
2022/03/23 05:39:58;;;;;;;4.50;1.73;;;25.10;98.80;;;;;;5066877;28;20024;-72
2022/03/23 05:42:25;;;;;;;5.15;0.80;;;25.10;98.90;;;;;;5063126;28;20032;-71
2022/03/23 05:44:52;;;;;;;2.78;0.98;;;25.00;99.10;;;;;;5078159;28;20034;-73
2022/03/23 05:47:21;;;;;;;5.93;1.35;;;24.90;99.40;;;;;;5069392;28;20058;-73
2022/03/23 05:49:48;;;;;;;4.82;0.75;;;24.70;99.70;;;;;;5066851;28;20036;-72
2022/03/23 05:52:16;;;;;;;3.67;0.80;;;24.60;99.90;;;;;;5057879;28;20025;-73
2022/03/23 05:54:43;;;;;;;7.88;1.33;;;24.60;99.80;;;;;;5052267;28;20021;-74
2022/03/23 05:57:11;;;;;;;9.65;1.02;;;24.60;99.90;;;;;;5064341;28;20055;-73
2022/03/23 05:59:38;;;;;;;2.65;0.95;;;24.50;99.90;;;;;;5066671;28;20037;-72
2022/03/23 06:02:05;;;;;;;7.88;1.65;;;24.50;99.90;;;;;;5063501;28;20475;-72
2022/03/23 06:04:33;;;;;;;7.43;1.90;;;24.50;99.90;;;;;;5056115;28;20508;-72
2022/03/23 06:07:00;;;;;;;6.35;0.82;;;24.40;99.90;;;;;;5064376;28;20481;-73
2022/03/23 06:09:27;;;;;;;5.72;1.02;;;24.30;99.90;;;;;;5059084;28;20057;-72
2022/03/23 06:11:57;;;;;;;3.60;0.70;;;24.40;99.90;;;;;;5052385;28;20024;-72
2022/03/23 06:14:24;;;;;;;6.13;0.80;;;24.30;99.90;;;;;;5056221;28;20025;-71
2022/03/23 06:16:52;;;;;;;3.92;1.35;;;24.30;99.90;;;;;;5069540;28;20490;-73
2022/03/23 06:19:19;;;;;;;3.17;1.30;;;24.30;99.90;;;;;;5067008;28;20037;-72
2022/03/23 06:21:47;;;;;;;8.77;1.35;;;24.30;99.90;;;;;;5066768;28;20450;-72
2022/03/23 06:24:14;;;;;;;6.22;0.82;;;24.10;99.90;;;;;;5057668;28;20120;-72
2022/03/23 06:26:41;;;;;;;4.32;0.65;;;24.10;99.90;;;;;;5050842;28;20022;-73
2022/03/23 06:29:08;;;;;;;7.53;0.82;;;24.00;99.90;;;;;;5054385;28;20051;-73
2022/03/23 06:31:36;;;;;;;5.85;1.42;;;23.90;99.90;;;;;;5048217;28;20075;-74
2022/03/23 06:34:04;;;;;;;2.28;0.50;;;23.70;99.90;;;;;;5051184;28;20021;-73
2022/03/23 06:36:31;;;;;;;5.72;0.73;;;23.60;99.90;;;;;;5048877;28;20044;-73
2022/03/23 06:38:59;;;;;;;4.93;0.80;;;23.40;99.90;;;;;;5051164;28;20598;-73
2022/03/23 06:41:26;;;;;;;3.75;0.60;;;23.40;99.90;;;;;;5050011;28;20052;-73
2022/03/23 06:43:54;;;;;;;7.50;0.88;;;23.30;99.90;;;;;;5064634;28;20060;-72
2022/03/23 06:46:21;;;;;;;8.10;1.10;;;23.40;99.90;;;;;;5056748;28;20506;-72
2022/03/23 06:48:49;;;;;;;5.85;1.80;;;23.50;99.90;;;;;;5054511;28;20028;-71
2022/03/23 06:51:17;;;;;;;4.65;1.38;;;23.40;99.90;;;;;;5062872;28;20025;-72
2022/03/23 06:53:45;;;;;;;5.75;1.33;;;23.40;99.90;;;;;;5069181;28;20549;-73
2022/03/23 06:56:12;;;;;;;3.97;1.20;;;23.40;99.90;;;;;;5067778;28;20032;-70
2022/03/23 06:58:39;;;;;;;3.85;1.08;;;23.30;99.90;;;;;;5059683;28;20068;-72
2022/03/23 07:01:07;;;;;;;4.68;2.00;;;23.40;99.90;;;;;;5056692;28;20031;-72
2022/03/23 07:03:34;;;;;;;9.15;1.20;;;23.40;99.90;;;;;;5054647;28;20385;-74
2022/03/23 07:06:02;;;;;;;7.78;0.85;;;23.30;99.90;;;;;;5056180;28;20041;-73
2022/03/23 07:11:15;;;;;;;6.28;1.15;;;23.20;99.90;;;;;;5054017;28;20074;-72
2022/03/23 07:13:43;;;;;;;10.05;2.65;;;23.30;99.90;;;;;;5059861;28;20502;-73
2022/03/23 07:16:10;;;;;;;4.55;1.42;;;23.20;99.90;;;;;;5068878;28;20021;-74
2022/03/23 07:18:37;;;;;;;4.53;1.10;;;23.20;99.90;;;;;;5068614;28;20028;-77
2022/03/23 07:21:05;;;;;;;5.13;0.93;;;23.10;99.90;;;;;;5071622;28;20028;-75
2022/03/23 07:23:34;;;;;;;7.82;1.02;;;23.20;99.90;;;;;;5069276;28;20915;-77
2022/03/23 07:26:02;;;;;;;3.58;1.00;;;23.20;99.90;;;;;;5073687;28;20297;-76
2022/03/23 07:28:31;;;;;;;6.30;1.23;;;23.10;99.90;;;;;;5067607;28;20024;-75
2022/03/23 07:31:02;;;;;;;7.43;1.50;;;23.10;99.90;;;;;;5070861;28;20047;-73
2022/03/23 07:33:29;;;;;;;4.57;1.33;;;23.00;99.90;;;;;;5069025;28;20506;-75
2022/03/23 07:35:57;;;;;;;9.45;0.80;;;22.90;99.90;;;;;;5063044;28;20529;-73
2022/03/23 07:38:24;;;;;;;6.55;1.13;;;22.90;99.90;;;;;;5058314;28;20036;-72
2022/03/23 07:40:51;;;;;;;10.52;0.80;;;22.80;99.90;;;;;;5069564;28;20025;-75
2022/03/23 07:43:19;;;;;;;6.15;1.50;;;22.80;99.90;;;;;;5061550;28;20526;-71
2022/03/23 07:45:48;;;;;;;5.63;1.42;;;22.80;99.90;;;;;;5069674;28;20059;-71
2022/03/23 07:48:16;;;;;;;5.88;0.95;;;22.90;99.90;;;;;;5066558;28;20111;-72
2022/03/23 07:50:43;;;;;;;9.32;1.30;;;22.80;99.90;;;;;;5069120;28;20063;-74
2022/03/23 07:53:11;;;;;;;4.60;1.13;;;22.80;99.90;;;;;;5070043;28;20382;-75
2022/03/23 07:55:39;;;;;;;7.47;1.08;;;22.70;99.90;;;;;;5069815;28;20032;-76
2022/03/23 07:58:06;;;;;;;5.25;1.10;;;22.70;99.90;;;;;;5069737;28;20020;-76
2022/03/23 08:00:34;;;;;;;6.93;1.33;;;22.70;99.90;;;;;;5061472;28;20037;-76
2022/03/23 08:03:01;;;;;;;3.38;1.10;;;22.70;99.90;;;;;;5059028;28;20456;-76
2022/03/23 08:05:30;;;;;;;4.22;0.80;;;22.70;99.90;;;;;;5069685;28;20032;-71
2022/03/23 08:07:59;;;;;;;7.05;1.30;;;22.70;99.90;;;;;;5063110;28;20142;-74
2022/03/23 08:10:27;;;;;;;8.32;1.48;;;22.70;99.90;;;;;;5062432;28;20166;-71
2022/03/23 08:12:55;;;;;;;6.60;1.00;;;22.60;99.90;;;;;;5070268;28;20025;-74
2022/03/23 08:15:24;;;;;;;10.95;2.10;;;22.60;99.90;;;;;;5068599;28;20029;-71
2022/03/23 08:17:51;;;;;;;6.22;1.67;;;22.70;99.90;;;;;;5068438;28;20565;-72
2022/03/23 08:20:35;;;;;;;6.88;1.10;;;22.70;99.90;;;;;;5069712;28;20031;-73
2022/03/23 08:23:08;;;;;;;4.78;1.00;;;22.70;99.90;;;;;;5069437;28;20016;-75
2022/03/23 08:25:41;;;;;;;6.97;1.25;;;22.60;99.90;;;;;;5070990;28;20024;-73
2022/03/23 08:28:09;;;;;;;8.75;1.80;;;22.60;99.90;;;;;;5065584;28;20025;-76
2022/03/23 08:30:37;;;;;;;7.72;0.90;;;22.60;99.90;;;;;;5070656;28;20290;-73
2022/03/23 08:33:05;;;;;;;3.35;0.90;;;22.60;99.90;;;;;;5059470;28;20078;-73
2022/03/23 08:35:33;;;;;;;8.80;1.10;;;22.60;99.90;;;;;;5061241;28;20032;-73
2022/03/23 08:38:00;;;;;;;4.63;0.75;;;22.60;99.90;;;;;;5060180;28;20625;-74
2022/03/23 08:40:29;;;;;;;5.38;0.95;;;22.60;99.90;;;;;;5059483;28;20041;-71
2022/03/23 08:42:58;;;;;;;4.43;1.35;;;22.70;99.90;;;;;;5065983;28;20041;-71
2022/03/23 08:45:26;;;;;;;4.30;1.08;;;22.70;99.90;;;;;;5067426;28;20090;-72
2022/03/23 08:47:54;;;;;;;6.47;0.95;;;22.70;99.90;;;;;;5066129;28;20049;-72
2022/03/23 08:50:24;;;;;;;6.60;1.60;;;22.70;99.90;;;;;;5063719;28;20045;-70
2022/03/23 08:52:53;;;;;;;5.43;1.30;;;22.60;99.90;;;;;;5060062;28;20119;-72
2022/03/23 08:55:23;;;;;;;7.53;1.70;;;22.60;99.90;;;;;;5066297;28;20020;-72
2022/03/23 08:57:51;;;;;;;6.18;0.70;;;22.60;99.90;;;;;;5068986;28;20028;-73
2022/03/23 09:00:18;;;;;;;3.20;0.90;;;22.50;99.90;;;;;;5053421;28;20404;-71
2022/03/23 09:02:46;;;;;;;5.80;0.90;;;22.50;99.90;;;;;;5060410;28;20025;-72
2022/03/23 09:05:14;;;;;;;7.25;1.33;;;22.40;99.90;;;;;;5048952;28;20108;-71
2022/03/23 09:07:42;;;;;;;10.35;1.42;;;22.40;99.90;;;;;;5066633;28;20099;-71
2022/03/23 09:10:13;;;;;;;10.40;1.50;;;22.40;99.90;;;;;;5058402;28;20171;-71
2022/03/23 09:12:41;;;;;;;11.07;1.40;;;22.50;99.90;;;;;;5064533;28;20081;-73
2022/03/23 09:15:11;;;;;;;14.65;1.52;;;22.40;99.90;;;;;;5066809;28;20040;-72
2022/03/23 09:17:39;;;;;;;5.47;0.60;;;22.50;99.90;;;;;;5067065;28;20024;-70
2022/03/23 09:20:07;;;;;;;9.70;1.48;;;22.40;99.90;;;;;;5060205;28;20028;-71
2022/03/23 09:22:35;;;;;;;11.00;1.75;;;22.40;99.90;;;;;;5063918;28;20125;-72
2022/03/23 09:25:07;;;;;;;5.90;0.82;;;22.20;99.90;;;;;;5065995;28;20025;-71
2022/03/23 09:27:36;;;;;;;11.80;0.93;;;22.10;99.90;;;;;;5058463;28;20048;-71
2022/03/23 09:30:08;;;;;;;3.50;1.10;;;22.10;99.90;;;;;;5066233;28;20041;-71
2022/03/23 09:32:36;;;;;;;11.90;1.20;;;22.00;99.90;;;;;;5064853;28;20087;-71
2022/03/23 09:35:03;;;;;;;6.85;1.70;;;22.00;99.90;;;;;;5061504;28;20039;-71
2022/03/23 09:37:49;;;;;;;10.73;1.88;;;22.00;99.90;;;;;;5068748;28;20025;-71
2022/03/23 09:40:31;;;;;;;10.75;1.40;;;22.00;99.90;;;;;;5064059;28;20027;-71
2022/03/23 09:43:08;;;;;;;12.00;2.25;;;22.00;99.90;;;;;;5065950;28;20041;-72
2022/03/23 09:48:09;;;;;;;9.27;2.10;;;21.90;99.90;;;;;;5068339;28;20062;-71
2022/03/23 09:50:41;;;;;;;12.70;2.30;;;21.90;99.90;;;;;;5069154;28;20029;-72
2022/03/23 09:53:09;;;;;;;13.05;1.77;;;21.90;99.90;;;;;;5067488;28;20563;-72
2022/03/23 09:55:37;;;;;;;7.65;1.38;;;21.80;99.90;;;;;;5060312;28;20043;-72
2022/03/23 09:58:07;;;;;;;6.70;1.52;;;21.80;99.90;;;;;;5058771;28;20476;-71
2022/03/23 10:00:37;;;;;;;8.15;1.48;;;21.80;99.90;;;;;;5062904;28;20043;-75
2022/03/23 10:03:29;;;;;;;5.28;1.00;;;21.80;99.90;;;;;;5062774;28;20012;-74
2022/03/23 10:06:24;;;;;;;10.02;1.92;;;21.80;99.90;;;;;;5066609;28;20025;-71
2022/03/23 10:09:25;;;;;;;4.57;1.25;;;21.80;99.90;;;;;;5061397;28;20036;-72
2022/03/23 10:12:22;;;;;;;7.28;1.52;;;21.70;99.90;;;;;;5063406;28;20501;-74
2022/03/23 10:15:14;;;;;;;13.00;1.63;;;21.70;99.90;;;;;;5062290;28;20028;-76
2022/03/23 10:18:20;;;;;;;15.75;2.72;;;21.70;99.90;;;;;;5068530;28;20059;-72
2022/03/23 10:20:48;;;;;;;9.32;1.50;;;21.70;99.90;;;;;;5070118;28;20445;-72
2022/03/23 10:23:23;;;;;;;9.23;1.50;;;21.80;99.90;;;;;;5071065;28;20177;-73
2022/03/23 10:25:51;;;;;;;12.48;1.67;;;21.60;99.90;;;;;;5073389;28;20032;-73
2022/03/23 10:28:18;;;;;;;8.65;2.47;;;21.60;99.90;;;;;;5071913;28;20025;-73
2022/03/23 10:30:47;;;;;;;12.25;2.88;;;21.50;99.90;;;;;;5071551;28;20032;-70
2022/03/23 10:33:22;;;;;;;11.52;2.17;;;21.40;99.90;;;;;;5057627;28;20028;-72
2022/03/23 10:35:51;;;;;;;7.47;2.72;;;21.40;99.90;;;;;;5064935;28;20732;-72
2022/03/23 10:38:19;;;;;;;8.85;1.92;;;21.40;99.90;;;;;;5061064;28;20651;-72
2022/03/23 10:40:49;;;;;;;11.25;2.28;;;21.40;99.90;;;;;;5059687;28;20495;-72
2022/03/23 10:43:34;;;;;;;7.88;1.35;;;21.30;99.90;;;;;;5069218;28;20080;-74
2022/03/23 10:46:11;;;;;;;10.93;1.58;;;21.40;99.90;;;;;;5061406;28;20040;-73
2022/03/23 10:48:59;;;;;;;6.80;1.58;;;21.40;99.90;;;;;;5066503;28;20040;-74
2022/03/23 10:51:34;;;;;;;6.90;1.35;;;21.40;99.90;;;;;;5058179;28;20033;-76
2022/03/23 10:54:26;;;;;;;9.98;2.22;;;21.40;99.90;;;;;;5061836;28;20033;-74
2022/03/23 10:56:54;;;;;;;9.15;2.13;;;21.40;99.90;;;;;;5066377;28;20120;-74
2022/03/23 10:59:25;;;;;;;5.22;1.17;;;21.40;99.90;;;;;;5059848;28;20043;-75
2022/03/23 11:02:03;;;;;;;9.00;1.35;;;21.40;99.90;;;;;;5075558;28;20029;-75
2022/03/23 11:04:47;;;;;;;11.35;1.67;;;21.30;99.90;;;;;;5068829;28;20052;-74
2022/03/23 11:07:30;;;;;;;7.60;1.35;;;21.40;99.90;;;;;;5070486;28;20028;-77
2022/03/23 11:16:06;;;;;;;9.82;1.90;;;21.20;99.90;;;;;;5018503;28;20065;-76
2022/03/23 11:18:33;;;;;;;9.52;1.40;;;21.30;99.90;;;;;;5011276;28;20038;-76
2022/03/23 11:21:01;;;;;;;8.00;1.20;;;21.30;99.90;;;;;;5048000;28;20043;-75
2022/03/23 11:23:30;;;;;;;5.47;1.65;;;21.30;99.90;;;;;;5068506;28;20083;-76
2022/03/23 11:26:01;;;;;;;4.22;1.88;;;21.30;99.90;;;;;;5070069;28;20436;-74
2022/03/23 11:28:38;;;;;;;6.75;1.83;;;21.30;99.90;;;;;;5064230;28;20032;-76
2022/03/23 11:31:08;;;;;;;10.52;1.77;;;21.30;99.90;;;;;;5064439;28;20036;-77
2022/03/23 11:33:37;;;;;;;8.18;1.17;;;21.20;99.90;;;;;;5059595;28;20112;-76
2022/03/23 11:36:09;;;;;;;7.72;1.17;;;21.20;99.90;;;;;;5061881;28;20064;-75
2022/03/23 11:38:37;;;;;;;10.57;1.48;;;21.20;99.90;;;;;;5055506;28;20028;-76
2022/03/23 11:41:07;;;;;;;7.45;1.60;;;21.20;99.90;;;;;;5059689;28;20117;-77
2022/03/23 11:43:35;;;;;;;5.15;2.22;;;21.20;99.90;;;;;;5063477;28;20522;-74
2022/03/23 11:46:04;;;;;;;8.85;2.17;;;21.10;99.90;;;;;;5052593;28;20044;-74
2022/03/23 11:48:55;;;;;;;10.68;2.20;;;21.10;99.90;;;;;;5054768;28;20032;-77
2022/03/23 11:51:41;;;;;;;14.43;1.77;;;21.10;99.90;;;;;;5055056;28;20072;-74
2022/03/23 11:54:11;;;;;;;6.00;2.78;;;21.10;99.90;;;;;;5058932;28;20034;-73
2022/03/23 11:56:58;;;;;;;5.15;1.40;;;21.10;99.90;;;;;;5058582;28;20052;-75
2022/03/23 11:59:34;;;;;;;5.80;1.63;;;21.10;99.90;;;;;;5061590;28;20491;-75
2022/03/23 12:02:01;;;;;;;12.30;2.15;;;21.10;99.90;;;;;;5067506;28;20075;-74
2022/03/23 12:04:29;;;;;;;9.43;1.58;;;21.00;99.90;;;;;;5058762;28;20028;-73
2022/03/23 12:07:07;;;;;;;8.07;2.20;;;21.10;99.90;;;;;;5065480;28;20028;-74
2022/03/23 12:09:40;;;;;;;10.32;1.77;;;21.00;99.90;;;;;;5058935;28;20036;-74
2022/03/23 12:12:24;;;;;;;10.00;1.52;;;21.00;99.90;;;;;;5062349;28;20091;-75
2022/03/23 12:14:51;;;;;;;6.43;1.27;;;21.00;99.90;;;;;;5068887;28;20031;-75
2022/03/23 12:17:27;;;;;;;10.45;1.52;;;21.00;99.90;;;;;;5059535;28;20040;-75
2022/03/23 12:20:08;;;;;;;5.55;1.05;;;21.00;99.90;;;;;;5058386;28;20371;-75
2022/03/23 12:22:46;;;;;;;7.50;1.60;;;21.00;99.90;;;;;;5065313;28;20032;-74
2022/03/23 12:25:31;;;;;;;7.25;0.98;;;21.00;99.90;;;;;;5066971;28;20051;-74
2022/03/23 12:28:23;;;;;;;9.80;1.53;;;21.00;99.90;;;;;;5067180;28;20037;-74
2022/03/23 12:30:56;;;;;;;7.32;1.00;;;21.00;99.90;;;;;;5061777;28;20277;-74
2022/03/23 12:33:28;;;;;;;12.15;1.70;;;21.00;99.90;;;;;;5060599;28;20028;-76
2022/03/23 12:36:04;;;;;;;11.10;1.42;;;21.00;99.90;;;;;;5068543;28;20029;-74
2022/03/23 12:38:33;;;;;;;4.38;1.33;;;21.00;99.90;;;;;;5057752;28;20455;-76
2022/03/23 12:41:11;;;;;;;7.93;1.27;;;20.90;99.90;;;;;;5057996;28;20017;-75
2022/03/23 12:43:43;;;;;;;7.13;1.77;;;20.90;99.90;;;;;;5063939;28;20723;-76
2022/03/23 12:46:22;;;;;;;10.13;1.75;;;20.90;99.90;;;;;;5051044;28;20021;-75
2022/03/23 12:57:49;;;;;;;7.35;1.98;;;20.90;99.90;;;;;;5057204;28;20116;-74
2022/03/23 13:00:28;;;;;;;10.77;2.10;;;20.80;99.90;;;;;;5057560;28;20031;-74
2022/03/23 13:03:07;;;;;;;14.40;1.80;;;20.90;99.90;;;;;;5061005;28;20767;-74
2022/03/23 13:05:58;;;;;;;4.55;1.63;;;20.80;99.90;;;;;;5066920;28;20036;-75
2022/03/23 13:08:38;;;;;;;5.75;1.38;;;20.80;99.90;;;;;;5056568;28;20079;-74
2022/03/23 13:11:07;;;;;;;5.95;1.52;;;20.80;99.90;;;;;;5064501;28;20021;-76
2022/03/23 13:13:36;;;;;;;8.82;1.40;;;20.80;99.90;;;;;;5064741;28;20082;-75
2022/03/23 13:16:12;;;;;;;8.30;1.60;;;20.80;99.90;;;;;;5064218;28;20379;-76
2022/03/23 13:18:39;;;;;;;;;;;20.70;99.90;;;;;;5062394;28;20062;-75
2022/03/23 13:21:17;;;;;;;8.73;1.15;;;20.70;99.90;;;;;;5064770;28;19912;-76
2022/03/23 13:23:47;;;;;;;6.47;1.10;;;20.70;99.90;;;;;;5060379;28;20526;-75
2022/03/23 13:26:17;;;;;;;10.38;2.67;;;20.70;99.90;;;;;;5052552;28;20115;-74
2022/03/23 13:28:59;;;;;;;8.38;2.53;;;20.70;99.90;;;;;;5058685;28;20028;-74
2022/03/23 13:31:35;;;;;;;6.20;1.45;;;20.70;99.90;;;;;;5061158;28;20033;-75
2022/03/23 13:34:10;;;;;;;5.22;1.73;;;20.70;99.90;;;;;;5062685;28;20098;-76